sensor_id;sensor_type;location;lat;lon;timestamp;P1;durP1;ratioP1;P2;durP2;ratioP2
47960;SDS011;33721;48.852;9.936;2022-09-23T00:00:38;19.63;;;8.07;;
47960;SDS011;33721;48.852;9.936;2022-09-23T00:03:05;16.17;;;8.23;;
47960;SDS011;33721;48.852;9.936;2022-09-23T00:05:31;15.45;;;7.63;;
47960;SDS011;33721;48.852;9.936;2022-09-23T00:07:57;15.35;;;8.10;;
47960;SDS011;33721;48.852;9.936;2022-09-23T00:10:24;16.27;;;8.50;;
47960;SDS011;33721;48.852;9.936;2022-09-23T00:12:51;16.50;;;7.63;;
47960;SDS011;33721;48.852;9.936;2022-09-23T00:15:18;15.73;;;8.60;;
47960;SDS011;33721;48.852;9.936;2022-09-23T00:17:44;17.30;;;8.25;;
47960;SDS011;33721;48.852;9.936;2022-09-23T00:20:10;17.13;;;8.50;;
47960;SDS011;33721;48.852;9.936;2022-09-23T00:22:36;19.08;;;8.60;;
47960;SDS011;33721;48.852;9.936;2022-09-23T00:25:02;20.63;;;8.45;;
47960;SDS011;33721;48.852;9.936;2022-09-23T00:27:29;13.35;;;7.47;;
47960;SDS011;33721;48.852;9.936;2022-09-23T00:29:55;18.60;;;8.30;;
47960;SDS011;33721;48.852;9.936;2022-09-23T00:32:21;13.38;;;7.53;;
47960;SDS011;33721;48.852;9.936;2022-09-23T00:34:46;13.88;;;7.63;;
47960;SDS011;33721;48.852;9.936;2022-09-23T00:37:12;15.55;;;7.78;;
47960;SDS011;33721;48.852;9.936;2022-09-23T00:39:38;18.60;;;8.10;;
47960;SDS011;33721;48.852;9.936;2022-09-23T00:42:05;14.45;;;7.80;;
47960;SDS011;33721;48.852;9.936;2022-09-23T00:52:39;15.05;;;8.00;;
47960;SDS011;33721;48.852;9.936;2022-09-23T00:55:06;16.88;;;7.63;;
47960;SDS011;33721;48.852;9.936;2022-09-23T00:57:36;18.58;;;8.10;;
47960;SDS011;33721;48.852;9.936;2022-09-23T01:00:04;15.10;;;8.27;;
47960;SDS011;33721;48.852;9.936;2022-09-23T01:02:31;19.70;;;8.82;;
47960;SDS011;33721;48.852;9.936;2022-09-23T01:04:57;16.52;;;8.38;;
47960;SDS011;33721;48.852;9.936;2022-09-23T01:07:25;16.52;;;8.68;;
47960;SDS011;33721;48.852;9.936;2022-09-23T01:09:51;15.15;;;7.70;;
47960;SDS011;33721;48.852;9.936;2022-09-23T01:15:03;18.50;;;8.35;;
47960;SDS011;33721;48.852;9.936;2022-09-23T01:36:08;15.73;;;7.88;;
47960;SDS011;33721;48.852;9.936;2022-09-23T01:38:43;14.52;;;7.35;;
47960;SDS011;33721;48.852;9.936;2022-09-23T01:47:10;14.35;;;7.55;;
47960;SDS011;33721;48.852;9.936;2022-09-23T01:52:29;16.58;;;7.07;;
47960;SDS011;33721;48.852;9.936;2022-09-23T01:57:47;15.60;;;7.85;;
47960;SDS011;33721;48.852;9.936;2022-09-23T02:00:21;13.98;;;7.55;;
47960;SDS011;33721;48.852;9.936;2022-09-23T02:02:55;14.35;;;6.57;;
47960;SDS011;33721;48.852;9.936;2022-09-23T02:05:29;15.32;;;7.97;;
47960;SDS011;33721;48.852;9.936;2022-09-23T02:08:31;15.10;;;7.18;;
47960;SDS011;33721;48.852;9.936;2022-09-23T02:11:06;14.57;;;7.57;;
47960;SDS011;33721;48.852;9.936;2022-09-23T02:16:17;13.10;;;6.97;;
47960;SDS011;33721;48.852;9.936;2022-09-23T02:18:57;18.15;;;8.23;;
47960;SDS011;33721;48.852;9.936;2022-09-23T02:21:28;16.67;;;8.50;;
47960;SDS011;33721;48.852;9.936;2022-09-23T02:24:06;16.17;;;8.43;;
47960;SDS011;33721;48.852;9.936;2022-09-23T02:26:43;13.73;;;7.28;;
47960;SDS011;33721;48.852;9.936;2022-09-23T02:32:07;15.25;;;7.68;;
47960;SDS011;33721;48.852;9.936;2022-09-23T02:34:47;14.15;;;7.82;;
47960;SDS011;33721;48.852;9.936;2022-09-23T02:37:22;15.35;;;8.02;;
47960;SDS011;33721;48.852;9.936;2022-09-23T02:42:30;14.77;;;7.70;;
47960;SDS011;33721;48.852;9.936;2022-09-23T02:45:19;15.05;;;7.30;;
47960;SDS011;33721;48.852;9.936;2022-09-23T02:47:46;12.57;;;6.93;;
47960;SDS011;33721;48.852;9.936;2022-09-23T02:50:17;16.50;;;8.05;;
47960;SDS011;33721;48.852;9.936;2022-09-23T02:52:43;16.02;;;7.50;;
47960;SDS011;33721;48.852;9.936;2022-09-23T02:55:11;15.50;;;7.18;;
47960;SDS011;33721;48.852;9.936;2022-09-23T02:57:40;13.93;;;7.13;;
47960;SDS011;33721;48.852;9.936;2022-09-23T03:00:06;15.07;;;7.57;;
47960;SDS011;33721;48.852;9.936;2022-09-23T03:02:40;14.35;;;7.57;;
47960;SDS011;33721;48.852;9.936;2022-09-23T03:05:29;14.38;;;7.80;;
47960;SDS011;33721;48.852;9.936;2022-09-23T03:08:09;16.98;;;7.57;;
47960;SDS011;33721;48.852;9.936;2022-09-23T03:11:09;14.93;;;7.25;;
47960;SDS011;33721;48.852;9.936;2022-09-23T03:16:30;14.52;;;7.70;;
47960;SDS011;33721;48.852;9.936;2022-09-23T03:21:31;16.25;;;7.72;;
47960;SDS011;33721;48.852;9.936;2022-09-23T03:24:21;17.63;;;8.05;;
47960;SDS011;33721;48.852;9.936;2022-09-23T03:26:48;16.23;;;8.25;;
47960;SDS011;33721;48.852;9.936;2022-09-23T03:29:15;18.08;;;8.88;;
47960;SDS011;33721;48.852;9.936;2022-09-23T03:31:44;17.73;;;8.90;;
47960;SDS011;33721;48.852;9.936;2022-09-23T03:34:28;17.85;;;7.50;;
47960;SDS011;33721;48.852;9.936;2022-09-23T03:37:00;15.70;;;8.07;;
47960;SDS011;33721;48.852;9.936;2022-09-23T03:41:56;15.60;;;7.63;;
47960;SDS011;33721;48.852;9.936;2022-09-23T03:44:25;15.57;;;7.38;;
47960;SDS011;33721;48.852;9.936;2022-09-23T03:46:53;17.00;;;7.95;;
47960;SDS011;33721;48.852;9.936;2022-09-23T03:51:51;14.02;;;7.35;;
47960;SDS011;33721;48.852;9.936;2022-09-23T03:54:17;15.30;;;7.72;;
47960;SDS011;33721;48.852;9.936;2022-09-23T03:56:44;13.70;;;7.43;;
47960;SDS011;33721;48.852;9.936;2022-09-23T03:59:13;15.48;;;7.35;;
47960;SDS011;33721;48.852;9.936;2022-09-23T04:01:40;15.18;;;8.52;;
47960;SDS011;33721;48.852;9.936;2022-09-23T04:04:06;14.55;;;8.52;;
47960;SDS011;33721;48.852;9.936;2022-09-23T04:06:33;15.38;;;7.20;;
47960;SDS011;33721;48.852;9.936;2022-09-23T04:08:59;12.98;;;7.60;;
47960;SDS011;33721;48.852;9.936;2022-09-23T04:11:28;13.60;;;7.05;;
47960;SDS011;33721;48.852;9.936;2022-09-23T04:13:54;14.50;;;7.45;;
47960;SDS011;33721;48.852;9.936;2022-09-23T04:16:20;17.33;;;7.82;;
47960;SDS011;33721;48.852;9.936;2022-09-23T04:18:45;14.68;;;7.63;;
47960;SDS011;33721;48.852;9.936;2022-09-23T04:21:12;13.73;;;8.00;;
47960;SDS011;33721;48.852;9.936;2022-09-23T04:23:37;14.25;;;7.20;;
47960;SDS011;33721;48.852;9.936;2022-09-23T04:26:03;14.82;;;7.55;;
47960;SDS011;33721;48.852;9.936;2022-09-23T04:28:29;14.85;;;7.97;;
47960;SDS011;33721;48.852;9.936;2022-09-23T04:30:55;13.95;;;7.03;;
47960;SDS011;33721;48.852;9.936;2022-09-23T04:33:22;15.23;;;7.18;;
47960;SDS011;33721;48.852;9.936;2022-09-23T04:35:51;13.38;;;7.22;;
47960;SDS011;33721;48.852;9.936;2022-09-23T04:38:17;15.50;;;7.75;;
47960;SDS011;33721;48.852;9.936;2022-09-23T04:40:43;16.35;;;7.18;;
47960;SDS011;33721;48.852;9.936;2022-09-23T04:43:09;16.55;;;7.35;;
47960;SDS011;33721;48.852;9.936;2022-09-23T04:45:34;14.90;;;7.45;;
47960;SDS011;33721;48.852;9.936;2022-09-23T04:48:00;12.68;;;7.15;;
47960;SDS011;33721;48.852;9.936;2022-09-23T04:50:27;16.02;;;7.50;;
47960;SDS011;33721;48.852;9.936;2022-09-23T04:52:53;16.38;;;7.72;;
47960;SDS011;33721;48.852;9.936;2022-09-23T04:55:19;16.13;;;7.93;;
47960;SDS011;33721;48.852;9.936;2022-09-23T04:57:46;16.98;;;7.78;;
47960;SDS011;33721;48.852;9.936;2022-09-23T05:00:11;17.63;;;7.72;;
47960;SDS011;33721;48.852;9.936;2022-09-23T05:02:45;16.75;;;7.82;;
47960;SDS011;33721;48.852;9.936;2022-09-23T05:05:12;14.95;;;7.57;;
47960;SDS011;33721;48.852;9.936;2022-09-23T05:07:42;16.15;;;7.68;;
47960;SDS011;33721;48.852;9.936;2022-09-23T05:10:08;15.60;;;8.10;;
47960;SDS011;33721;48.852;9.936;2022-09-23T05:12:34;14.60;;;7.65;;
47960;SDS011;33721;48.852;9.936;2022-09-23T05:14:59;15.73;;;7.30;;
47960;SDS011;33721;48.852;9.936;2022-09-23T05:17:26;14.90;;;7.40;;
47960;SDS011;33721;48.852;9.936;2022-09-23T05:19:52;16.13;;;7.70;;
47960;SDS011;33721;48.852;9.936;2022-09-23T05:22:18;17.35;;;7.80;;
47960;SDS011;33721;48.852;9.936;2022-09-23T05:24:44;13.23;;;8.10;;
47960;SDS011;33721;48.852;9.936;2022-09-23T05:27:10;17.30;;;7.78;;
47960;SDS011;33721;48.852;9.936;2022-09-23T05:29:35;18.08;;;8.20;;
47960;SDS011;33721;48.852;9.936;2022-09-23T05:32:02;16.35;;;7.35;;
47960;SDS011;33721;48.852;9.936;2022-09-23T05:34:28;18.42;;;8.38;;
47960;SDS011;33721;48.852;9.936;2022-09-23T05:36:54;16.05;;;8.30;;
47960;SDS011;33721;48.852;9.936;2022-09-23T05:39:19;16.08;;;7.57;;
47960;SDS011;33721;48.852;9.936;2022-09-23T05:41:45;19.23;;;8.20;;
47960;SDS011;33721;48.852;9.936;2022-09-23T05:44:11;15.90;;;8.65;;
47960;SDS011;33721;48.852;9.936;2022-09-23T05:46:36;17.10;;;7.97;;
47960;SDS011;33721;48.852;9.936;2022-09-23T05:49:02;16.48;;;8.07;;
47960;SDS011;33721;48.852;9.936;2022-09-23T05:51:29;16.02;;;8.77;;
47960;SDS011;33721;48.852;9.936;2022-09-23T05:53:56;12.40;;;7.30;;
47960;SDS011;33721;48.852;9.936;2022-09-23T05:56:22;13.88;;;7.05;;
47960;SDS011;33721;48.852;9.936;2022-09-23T05:58:50;14.88;;;7.57;;
47960;SDS011;33721;48.852;9.936;2022-09-23T06:01:17;15.63;;;7.40;;
47960;SDS011;33721;48.852;9.936;2022-09-23T06:03:48;13.85;;;6.95;;
47960;SDS011;33721;48.852;9.936;2022-09-23T06:06:19;14.57;;;7.40;;
47960;SDS011;33721;48.852;9.936;2022-09-23T06:08:50;14.23;;;7.78;;
47960;SDS011;33721;48.852;9.936;2022-09-23T06:11:16;12.23;;;7.07;;
47960;SDS011;33721;48.852;9.936;2022-09-23T06:13:41;14.73;;;7.78;;
47960;SDS011;33721;48.852;9.936;2022-09-23T06:16:10;20.10;;;8.27;;
47960;SDS011;33721;48.852;9.936;2022-09-23T06:18:41;13.77;;;7.55;;
47960;SDS011;33721;48.852;9.936;2022-09-23T06:21:11;15.38;;;7.45;;
47960;SDS011;33721;48.852;9.936;2022-09-23T06:23:39;13.90;;;7.38;;
47960;SDS011;33721;48.852;9.936;2022-09-23T06:26:06;14.07;;;7.70;;
47960;SDS011;33721;48.852;9.936;2022-09-23T06:28:35;17.13;;;8.10;;
47960;SDS011;33721;48.852;9.936;2022-09-23T06:31:02;15.60;;;7.40;;
47960;SDS011;33721;48.852;9.936;2022-09-23T06:33:30;13.38;;;7.03;;
47960;SDS011;33721;48.852;9.936;2022-09-23T06:35:56;17.10;;;7.75;;
47960;SDS011;33721;48.852;9.936;2022-09-23T06:38:24;15.55;;;7.95;;
47960;SDS011;33721;48.852;9.936;2022-09-23T06:40:51;16.45;;;8.18;;
47960;SDS011;33721;48.852;9.936;2022-09-23T06:43:18;16.10;;;8.75;;
47960;SDS011;33721;48.852;9.936;2022-09-23T06:45:45;12.70;;;7.78;;
47960;SDS011;33721;48.852;9.936;2022-09-23T06:48:10;14.48;;;8.05;;
47960;SDS011;33721;48.852;9.936;2022-09-23T06:50:36;17.92;;;8.30;;
47960;SDS011;33721;48.852;9.936;2022-09-23T06:53:02;14.82;;;8.02;;
47960;SDS011;33721;48.852;9.936;2022-09-23T06:55:28;16.48;;;8.25;;
47960;SDS011;33721;48.852;9.936;2022-09-23T06:57:56;18.73;;;8.75;;
47960;SDS011;33721;48.852;9.936;2022-09-23T07:00:23;14.93;;;8.27;;
47960;SDS011;33721;48.852;9.936;2022-09-23T07:02:50;17.90;;;8.15;;
47960;SDS011;33721;48.852;9.936;2022-09-23T07:05:16;18.20;;;7.90;;
47960;SDS011;33721;48.852;9.936;2022-09-23T07:07:42;15.25;;;8.20;;
47960;SDS011;33721;48.852;9.936;2022-09-23T07:10:08;14.40;;;8.05;;
47960;SDS011;33721;48.852;9.936;2022-09-23T07:12:35;14.15;;;8.00;;
47960;SDS011;33721;48.852;9.936;2022-09-23T07:15:02;14.30;;;7.50;;
47960;SDS011;33721;48.852;9.936;2022-09-23T07:17:28;16.98;;;8.50;;
47960;SDS011;33721;48.852;9.936;2022-09-23T07:19:55;12.90;;;7.60;;
47960;SDS011;33721;48.852;9.936;2022-09-23T07:22:21;15.65;;;7.80;;
47960;SDS011;33721;48.852;9.936;2022-09-23T07:24:48;14.60;;;8.40;;
47960;SDS011;33721;48.852;9.936;2022-09-23T07:27:14;14.32;;;8.18;;
47960;SDS011;33721;48.852;9.936;2022-09-23T07:29:44;12.75;;;8.02;;
47960;SDS011;33721;48.852;9.936;2022-09-23T07:32:11;16.02;;;8.65;;
47960;SDS011;33721;48.852;9.936;2022-09-23T07:34:37;17.05;;;9.13;;
47960;SDS011;33721;48.852;9.936;2022-09-23T07:37:03;15.73;;;8.23;;
47960;SDS011;33721;48.852;9.936;2022-09-23T07:39:29;14.73;;;8.23;;
47960;SDS011;33721;48.852;9.936;2022-09-23T07:41:55;15.25;;;8.60;;
47960;SDS011;33721;48.852;9.936;2022-09-23T07:44:20;12.57;;;7.43;;
47960;SDS011;33721;48.852;9.936;2022-09-23T07:46:47;12.23;;;6.88;;
47960;SDS011;33721;48.852;9.936;2022-09-23T07:49:16;11.38;;;6.55;;
47960;SDS011;33721;48.852;9.936;2022-09-23T07:51:41;10.65;;;6.50;;
47960;SDS011;33721;48.852;9.936;2022-09-23T07:54:11;11.98;;;5.85;;
47960;SDS011;33721;48.852;9.936;2022-09-23T07:56:39;8.15;;;5.43;;
47960;SDS011;33721;48.852;9.936;2022-09-23T07:59:06;15.70;;;5.93;;
47960;SDS011;33721;48.852;9.936;2022-09-23T08:01:37;9.98;;;5.28;;
47960;SDS011;33721;48.852;9.936;2022-09-23T08:04:21;8.70;;;5.22;;
47960;SDS011;33721;48.852;9.936;2022-09-23T08:06:53;8.20;;;4.93;;
47960;SDS011;33721;48.852;9.936;2022-09-23T08:09:21;7.22;;;4.63;;
47960;SDS011;33721;48.852;9.936;2022-09-23T08:11:49;9.65;;;4.95;;
47960;SDS011;33721;48.852;9.936;2022-09-23T08:14:15;7.30;;;4.55;;
47960;SDS011;33721;48.852;9.936;2022-09-23T08:16:42;7.30;;;4.50;;
47960;SDS011;33721;48.852;9.936;2022-09-23T08:19:11;7.60;;;4.60;;
47960;SDS011;33721;48.852;9.936;2022-09-23T08:21:37;7.13;;;4.25;;
47960;SDS011;33721;48.852;9.936;2022-09-23T08:24:07;7.57;;;4.45;;
47960;SDS011;33721;48.852;9.936;2022-09-23T08:26:36;7.45;;;3.72;;
47960;SDS011;33721;48.852;9.936;2022-09-23T08:29:02;7.00;;;3.78;;
47960;SDS011;33721;48.852;9.936;2022-09-23T08:31:29;7.47;;;4.22;;
47960;SDS011;33721;48.852;9.936;2022-09-23T08:33:58;8.75;;;4.68;;
47960;SDS011;33721;48.852;9.936;2022-09-23T08:36:24;6.30;;;3.33;;
47960;SDS011;33721;48.852;9.936;2022-09-23T08:38:51;5.80;;;3.35;;
47960;SDS011;33721;48.852;9.936;2022-09-23T08:44:07;8.68;;;3.65;;
47960;SDS011;33721;48.852;9.936;2022-09-23T08:46:45;7.60;;;3.50;;
47960;SDS011;33721;48.852;9.936;2022-09-23T08:49:31;6.43;;;2.72;;
47960;SDS011;33721;48.852;9.936;2022-09-23T08:52:03;4.47;;;3.00;;
47960;SDS011;33721;48.852;9.936;2022-09-23T08:54:41;5.25;;;3.03;;
47960;SDS011;33721;48.852;9.936;2022-09-23T08:57:06;7.15;;;3.83;;
47960;SDS011;33721;48.852;9.936;2022-09-23T08:59:43;5.50;;;3.55;;
47960;SDS011;33721;48.852;9.936;2022-09-23T09:02:14;5.38;;;3.20;;
47960;SDS011;33721;48.852;9.936;2022-09-23T09:04:44;7.60;;;2.92;;
47960;SDS011;33721;48.852;9.936;2022-09-23T09:07:14;6.50;;;2.97;;
47960;SDS011;33721;48.852;9.936;2022-09-23T09:09:46;4.18;;;2.53;;
47960;SDS011;33721;48.852;9.936;2022-09-23T09:14:52;3.55;;;2.60;;
47960;SDS011;33721;48.852;9.936;2022-09-23T09:17:46;8.60;;;2.70;;
47960;SDS011;33721;48.852;9.936;2022-09-23T09:22:59;4.03;;;2.50;;
47960;SDS011;33721;48.852;9.936;2022-09-23T09:25:49;4.10;;;2.58;;
47960;SDS011;33721;48.852;9.936;2022-09-23T09:28:24;6.85;;;3.10;;
47960;SDS011;33721;48.852;9.936;2022-09-23T09:31:00;3.60;;;2.53;;
47960;SDS011;33721;48.852;9.936;2022-09-23T09:33:46;5.40;;;2.20;;
47960;SDS011;33721;48.852;9.936;2022-09-23T09:36:30;4.45;;;2.50;;
47960;SDS011;33721;48.852;9.936;2022-09-23T09:39:04;3.28;;;2.30;;
47960;SDS011;33721;48.852;9.936;2022-09-23T09:41:32;3.72;;;2.10;;
47960;SDS011;33721;48.852;9.936;2022-09-23T09:44:00;5.45;;;2.08;;
47960;SDS011;33721;48.852;9.936;2022-09-23T09:46:54;2.97;;;2.17;;
47960;SDS011;33721;48.852;9.936;2022-09-23T09:52:20;3.58;;;2.00;;
47960;SDS011;33721;48.852;9.936;2022-09-23T09:54:51;4.30;;;2.50;;
47960;SDS011;33721;48.852;9.936;2022-09-23T09:57:18;4.78;;;2.40;;
47960;SDS011;33721;48.852;9.936;2022-09-23T09:59:51;3.88;;;2.20;;
47960;SDS011;33721;48.852;9.936;2022-09-23T10:02:25;6.63;;;2.40;;
47960;SDS011;33721;48.852;9.936;2022-09-23T10:04:55;4.65;;;2.10;;
47960;SDS011;33721;48.852;9.936;2022-09-23T10:07:29;3.88;;;2.28;;
47960;SDS011;33721;48.852;9.936;2022-09-23T10:09:57;5.07;;;2.08;;
47960;SDS011;33721;48.852;9.936;2022-09-23T10:12:41;5.68;;;2.50;;
47960;SDS011;33721;48.852;9.936;2022-09-23T10:15:25;5.18;;;2.30;;
47960;SDS011;33721;48.852;9.936;2022-09-23T10:17:52;6.40;;;2.42;;
47960;SDS011;33721;48.852;9.936;2022-09-23T10:20:18;8.70;;;2.35;;
47960;SDS011;33721;48.852;9.936;2022-09-23T10:22:44;4.63;;;2.08;;
47960;SDS011;33721;48.852;9.936;2022-09-23T10:25:20;5.60;;;2.72;;
47960;SDS011;33721;48.852;9.936;2022-09-23T10:27:50;3.58;;;2.28;;
47960;SDS011;33721;48.852;9.936;2022-09-23T10:30:23;8.45;;;2.47;;
47960;SDS011;33721;48.852;9.936;2022-09-23T10:32:52;2.88;;;2.10;;
47960;SDS011;33721;48.852;9.936;2022-09-23T10:35:21;5.78;;;2.28;;
47960;SDS011;33721;48.852;9.936;2022-09-23T10:37:52;3.08;;;2.05;;
47960;SDS011;33721;48.852;9.936;2022-09-23T10:43:26;4.47;;;2.53;;
47960;SDS011;33721;48.852;9.936;2022-09-23T10:46:30;5.00;;;1.90;;
47960;SDS011;33721;48.852;9.936;2022-09-23T10:54:45;3.03;;;1.90;;
47960;SDS011;33721;48.852;9.936;2022-09-23T11:00:19;7.78;;;2.50;;
47960;SDS011;33721;48.852;9.936;2022-09-23T11:17:03;3.97;;;2.20;;
47960;SDS011;33721;48.852;9.936;2022-09-23T11:25:34;5.32;;;2.83;;
47960;SDS011;33721;48.852;9.936;2022-09-23T11:28:29;9.98;;;3.22;;
47960;SDS011;33721;48.852;9.936;2022-09-23T11:31:36;5.68;;;3.13;;
47960;SDS011;33721;48.852;9.936;2022-09-23T11:37:00;7.63;;;3.65;;
47960;SDS011;33721;48.852;9.936;2022-09-23T11:39:30;6.95;;;2.92;;
47960;SDS011;33721;48.852;9.936;2022-09-23T11:42:22;9.15;;;2.67;;
47960;SDS011;33721;48.852;9.936;2022-09-23T11:44:55;5.85;;;2.83;;
47960;SDS011;33721;48.852;9.936;2022-09-23T11:47:27;7.70;;;3.20;;
47960;SDS011;33721;48.852;9.936;2022-09-23T11:50:00;7.50;;;2.92;;
47960;SDS011;33721;48.852;9.936;2022-09-23T11:52:39;6.55;;;3.10;;
47960;SDS011;33721;48.852;9.936;2022-09-23T11:55:19;4.97;;;2.95;;
47960;SDS011;33721;48.852;9.936;2022-09-23T11:57:55;4.22;;;2.70;;
47960;SDS011;33721;48.852;9.936;2022-09-23T12:00:24;4.55;;;2.92;;
47960;SDS011;33721;48.852;9.936;2022-09-23T12:03:07;7.40;;;3.35;;
47960;SDS011;33721;48.852;9.936;2022-09-23T12:05:44;4.07;;;2.60;;
47960;SDS011;33721;48.852;9.936;2022-09-23T12:10:58;4.75;;;2.90;;
47960;SDS011;33721;48.852;9.936;2022-09-23T12:14:03;5.90;;;3.50;;
47960;SDS011;33721;48.852;9.936;2022-09-23T12:27:53;7.13;;;3.45;;
47960;SDS011;33721;48.852;9.936;2022-09-23T12:30:26;6.18;;;3.40;;
47960;SDS011;33721;48.852;9.936;2022-09-23T12:35:51;7.65;;;3.80;;
47960;SDS011;33721;48.852;9.936;2022-09-23T12:38:26;5.68;;;3.53;;
47960;SDS011;33721;48.852;9.936;2022-09-23T12:40:56;11.38;;;3.67;;
47960;SDS011;33721;48.852;9.936;2022-09-23T12:43:33;5.30;;;3.03;;
47960;SDS011;33721;48.852;9.936;2022-09-23T12:46:18;9.27;;;3.45;;
47960;SDS011;33721;48.852;9.936;2022-09-23T12:51:27;6.70;;;3.95;;
47960;SDS011;33721;48.852;9.936;2022-09-23T12:58:56;7.55;;;3.72;;
47960;SDS011;33721;48.852;9.936;2022-09-23T13:01:22;7.95;;;3.67;;
47960;SDS011;33721;48.852;9.936;2022-09-23T13:03:51;5.95;;;3.83;;
47960;SDS011;33721;48.852;9.936;2022-09-23T13:06:56;6.53;;;3.78;;
47960;SDS011;33721;48.852;9.936;2022-09-23T13:09:30;7.60;;;3.63;;
47960;SDS011;33721;48.852;9.936;2022-09-23T13:12:04;7.65;;;3.85;;
47960;SDS011;33721;48.852;9.936;2022-09-23T13:14:37;7.50;;;3.50;;
47960;SDS011;33721;48.852;9.936;2022-09-23T13:17:19;6.82;;;3.92;;
47960;SDS011;33721;48.852;9.936;2022-09-23T13:19:48;6.38;;;3.60;;
47960;SDS011;33721;48.852;9.936;2022-09-23T13:23:06;11.20;;;3.97;;
47960;SDS011;33721;48.852;9.936;2022-09-23T13:25:44;6.18;;;4.00;;
47960;SDS011;33721;48.852;9.936;2022-09-23T13:28:25;7.10;;;4.00;;
47960;SDS011;33721;48.852;9.936;2022-09-23T13:30:56;5.65;;;3.85;;
47960;SDS011;33721;48.852;9.936;2022-09-23T13:33:28;6.50;;;3.90;;
47960;SDS011;33721;48.852;9.936;2022-09-23T13:36:02;10.87;;;4.47;;
47960;SDS011;33721;48.852;9.936;2022-09-23T13:38:36;5.25;;;3.75;;
47960;SDS011;33721;48.852;9.936;2022-09-23T13:41:22;8.23;;;3.88;;
47960;SDS011;33721;48.852;9.936;2022-09-23T13:43:52;9.63;;;3.72;;
47960;SDS011;33721;48.852;9.936;2022-09-23T13:46:24;10.30;;;4.47;;
47960;SDS011;33721;48.852;9.936;2022-09-23T13:48:52;5.68;;;3.30;;
47960;SDS011;33721;48.852;9.936;2022-09-23T13:53:57;8.75;;;4.45;;
47960;SDS011;33721;48.852;9.936;2022-09-23T13:56:25;16.13;;;4.03;;
47960;SDS011;33721;48.852;9.936;2022-09-23T13:58:53;6.40;;;4.18;;
47960;SDS011;33721;48.852;9.936;2022-09-23T14:03:52;6.88;;;3.72;;
47960;SDS011;33721;48.852;9.936;2022-09-23T14:06:18;6.57;;;3.40;;
47960;SDS011;33721;48.852;9.936;2022-09-23T14:08:45;9.05;;;3.97;;
47960;SDS011;33721;48.852;9.936;2022-09-23T14:11:15;9.30;;;4.03;;
47960;SDS011;33721;48.852;9.936;2022-09-23T14:13:43;6.88;;;4.03;;
47960;SDS011;33721;48.852;9.936;2022-09-23T14:16:11;7.72;;;3.42;;
47960;SDS011;33721;48.852;9.936;2022-09-23T14:18:44;6.28;;;3.50;;
47960;SDS011;33721;48.852;9.936;2022-09-23T14:21:46;10.25;;;3.67;;
47960;SDS011;33721;48.852;9.936;2022-09-23T14:24:14;7.35;;;3.55;;
47960;SDS011;33721;48.852;9.936;2022-09-23T14:26:46;26.33;;;6.05;;
47960;SDS011;33721;48.852;9.936;2022-09-23T14:29:23;7.18;;;3.60;;
47960;SDS011;33721;48.852;9.936;2022-09-23T14:31:55;6.13;;;3.70;;
47960;SDS011;33721;48.852;9.936;2022-09-23T14:37:32;31.55;;;6.88;;
47960;SDS011;33721;48.852;9.936;2022-09-23T14:40:24;5.53;;;3.67;;
47960;SDS011;33721;48.852;9.936;2022-09-23T14:42:59;7.40;;;3.72;;
47960;SDS011;33721;48.852;9.936;2022-09-23T14:45:30;7.20;;;3.40;;
47960;SDS011;33721;48.852;9.936;2022-09-23T14:48:00;9.77;;;3.60;;
47960;SDS011;33721;48.852;9.936;2022-09-23T14:50:30;7.47;;;4.05;;
47960;SDS011;33721;48.852;9.936;2022-09-23T14:55:46;5.53;;;3.58;;
47960;SDS011;33721;48.852;9.936;2022-09-23T14:58:17;5.00;;;3.40;;
47960;SDS011;33721;48.852;9.936;2022-09-23T15:00:56;4.88;;;3.10;;
47960;SDS011;33721;48.852;9.936;2022-09-23T15:03:26;8.95;;;3.90;;
47960;SDS011;33721;48.852;9.936;2022-09-23T15:05:59;9.20;;;4.35;;
47960;SDS011;33721;48.852;9.936;2022-09-23T15:08:33;7.95;;;3.80;;
47960;SDS011;33721;48.852;9.936;2022-09-23T15:11:01;7.97;;;4.00;;
47960;SDS011;33721;48.852;9.936;2022-09-23T15:13:29;5.90;;;3.70;;
47960;SDS011;33721;48.852;9.936;2022-09-23T15:15:58;6.65;;;3.70;;
47960;SDS011;33721;48.852;9.936;2022-09-23T15:18:35;7.10;;;3.50;;
47960;SDS011;33721;48.852;9.936;2022-09-23T15:26:54;6.57;;;4.22;;
47960;SDS011;33721;48.852;9.936;2022-09-23T15:29:03;6.40;;;3.83;;
47960;SDS011;33721;48.852;9.936;2022-09-23T15:34:00;8.77;;;3.70;;
47960;SDS011;33721;48.852;9.936;2022-09-23T15:36:26;8.05;;;3.67;;
47960;SDS011;33721;48.852;9.936;2022-09-23T15:39:00;5.07;;;3.70;;
47960;SDS011;33721;48.852;9.936;2022-09-23T15:41:26;8.30;;;3.80;;
47960;SDS011;33721;48.852;9.936;2022-09-23T15:43:52;7.00;;;3.78;;
47960;SDS011;33721;48.852;9.936;2022-09-23T15:46:24;7.45;;;3.80;;
47960;SDS011;33721;48.852;9.936;2022-09-23T15:51:26;7.50;;;3.70;;
47960;SDS011;33721;48.852;9.936;2022-09-23T15:53:52;5.70;;;3.17;;
47960;SDS011;33721;48.852;9.936;2022-09-23T15:56:22;6.95;;;3.42;;
47960;SDS011;33721;48.852;9.936;2022-09-23T15:58:48;5.55;;;3.15;;
47960;SDS011;33721;48.852;9.936;2022-09-23T16:01:25;5.35;;;3.65;;
47960;SDS011;33721;48.852;9.936;2022-09-23T16:03:54;5.95;;;3.13;;
47960;SDS011;33721;48.852;9.936;2022-09-23T16:06:20;4.95;;;3.15;;
47960;SDS011;33721;48.852;9.936;2022-09-23T16:08:46;5.00;;;3.40;;
47960;SDS011;33721;48.852;9.936;2022-09-23T16:11:20;7.60;;;3.58;;
47960;SDS011;33721;48.852;9.936;2022-09-23T16:13:51;9.13;;;3.65;;
47960;SDS011;33721;48.852;9.936;2022-09-23T16:16:17;5.05;;;3.28;;
47960;SDS011;33721;48.852;9.936;2022-09-23T16:18:46;6.13;;;3.45;;
47960;SDS011;33721;48.852;9.936;2022-09-23T16:21:15;8.23;;;4.05;;
47960;SDS011;33721;48.852;9.936;2022-09-23T16:23:43;6.38;;;3.65;;
47960;SDS011;33721;48.852;9.936;2022-09-23T16:26:15;9.60;;;4.32;;
47960;SDS011;33721;48.852;9.936;2022-09-23T16:28:44;13.07;;;4.05;;
47960;SDS011;33721;48.852;9.936;2022-09-23T16:31:11;9.30;;;3.78;;
47960;SDS011;33721;48.852;9.936;2022-09-23T16:33:39;8.68;;;3.80;;
47960;SDS011;33721;48.852;9.936;2022-09-23T16:36:23;7.10;;;4.07;;
47960;SDS011;33721;48.852;9.936;2022-09-23T16:38:55;8.13;;;4.18;;
47960;SDS011;33721;48.852;9.936;2022-09-23T16:41:25;15.30;;;4.15;;
47960;SDS011;33721;48.852;9.936;2022-09-23T16:43:53;6.43;;;4.00;;
47960;SDS011;33721;48.852;9.936;2022-09-23T16:46:20;9.73;;;4.57;;
47960;SDS011;33721;48.852;9.936;2022-09-23T16:48:47;6.93;;;4.43;;
47960;SDS011;33721;48.852;9.936;2022-09-23T16:53:40;6.80;;;4.13;;
47960;SDS011;33721;48.852;9.936;2022-09-23T16:56:07;7.00;;;4.32;;
47960;SDS011;33721;48.852;9.936;2022-09-23T16:58:35;6.85;;;3.90;;
47960;SDS011;33721;48.852;9.936;2022-09-23T17:01:03;7.13;;;4.40;;
47960;SDS011;33721;48.852;9.936;2022-09-23T17:03:48;9.55;;;4.45;;
47960;SDS011;33721;48.852;9.936;2022-09-23T17:06:14;8.43;;;4.70;;
47960;SDS011;33721;48.852;9.936;2022-09-23T17:08:43;16.02;;;5.30;;
47960;SDS011;33721;48.852;9.936;2022-09-23T17:11:12;8.35;;;5.05;;
47960;SDS011;33721;48.852;9.936;2022-09-23T17:13:40;9.80;;;5.05;;
47960;SDS011;33721;48.852;9.936;2022-09-23T17:16:06;9.73;;;4.95;;
47960;SDS011;33721;48.852;9.936;2022-09-23T17:18:33;10.75;;;4.93;;
47960;SDS011;33721;48.852;9.936;2022-09-23T17:21:02;7.07;;;4.13;;
47960;SDS011;33721;48.852;9.936;2022-09-23T17:23:30;11.02;;;4.07;;
47960;SDS011;33721;48.852;9.936;2022-09-23T17:25:59;13.63;;;6.20;;
47960;SDS011;33721;48.852;9.936;2022-09-23T17:28:25;13.90;;;6.72;;
47960;SDS011;33721;48.852;9.936;2022-09-23T17:30:54;14.90;;;6.95;;
47960;SDS011;33721;48.852;9.936;2022-09-23T17:33:24;12.80;;;6.32;;
47960;SDS011;33721;48.852;9.936;2022-09-23T17:35:51;11.65;;;5.95;;